Time;durP1;ratioP1;P1;durP2;ratioP2;P2;SDS_P1;SDS_P2;PMS_P1;PMS_P2;Temp;Humidity;BMP_temperature;BMP_pressure;BME280_temperature;BME280_humidity;BME280_pressure;Samples;Min_cycle;Max_cycle;Signal;HPM_P1;HPM_P2
2022/01/23 00:03:18;;;;;;;19.02;8.65;;;;;;;-2.30;70.50;97506.13;10422384;27;98608;-62
2022/01/23 00:08:21;;;;;;;16.63;8.23;;;;;;;-2.34;70.38;97501.09;10423524;27;96939;-62
2022/01/23 00:13:29;;;;;;;20.65;9.98;;;;;;;-2.38;70.51;97499.50;10417502;27;97522;-62
2022/01/23 00:18:33;;;;;;;8.43;4.28;;;;;;;-2.34;71.41;97496.81;10415576;27;98198;-63
2022/01/23 00:30:19;;;;;;;6.22;2.92;;;;;;;-2.25;70.72;97504.25;10414863;27;97133;-62
2022/01/23 00:34:20;;;;;;;11.52;5.00;;;;;;;-2.24;70.30;97495.72;10413491;27;96987;-68
2022/01/23 00:39:23;;;;;;;14.23;8.68;;;;;;;-2.28;71.40;97495.81;10417122;27;96799;-62
2022/01/23 00:44:28;;;;;;;13.38;7.47;;;;;;;-2.31;71.54;97483.13;10418105;27;97029;-61
2022/01/23 00:49:31;;;;;;;14.73;6.22;;;;;;;-2.34;70.29;97481.47;10417727;27;97048;-61
2022/01/23 00:54:34;;;;;;;14.25;7.45;;;;;;;-2.41;70.91;97482.50;10401737;27;98382;-62
2022/01/23 00:59:38;;;;;;;10.00;5.35;;;;;;;-2.51;71.10;97483.59;10417808;27;96791;-62
2022/01/23 01:04:41;;;;;;;11.52;5.38;;;;;;;-2.55;70.52;97492.22;10415036;27;97276;-65
2022/01/23 01:09:48;;;;;;;14.10;6.43;;;;;;;-2.60;70.95;97490.59;10417680;27;98849;-62
2022/01/23 01:31:01;;;;;;;7.00;4.47;;;;;;;-2.84;71.94;97488.63;10416035;27;98217;-61
2022/01/23 01:36:17;;;;;;;6.40;4.30;;;;;;;-2.81;72.03;97496.22;10412697;27;96954;-62
2022/01/23 01:41:22;;;;;;;8.27;4.43;;;;;;;-2.75;72.72;97485.84;10409518;27;97967;-64
2022/01/23 01:46:28;;;;;;;6.40;4.13;;;;;;;-2.74;72.99;97477.31;10413477;27;97368;-62
2022/01/23 01:51:32;;;;;;;6.93;4.28;;;;;;;-2.74;72.45;97472.19;10418190;27;97365;-61
2022/01/23 01:56:46;;;;;;;8.13;4.35;;;;;;;-2.71;72.11;97467.00;10413662;27;96819;-62
2022/01/23 02:17:59;;;;;;;8.35;4.07;;;;;;;-2.95;70.93;97457.34;10412724;27;98460;-61
2022/01/23 02:23:22;;;;;;;8.43;4.25;;;;;;;-3.03;71.92;97455.81;10415363;27;96920;-65
2022/01/23 02:55:13;;;;;;;8.40;5.40;;;;;;;-3.26;72.44;97443.53;10418086;27;97466;-61
2022/01/23 03:00:19;;;;;;;6.82;3.95;;;;;;;-3.31;71.89;97439.41;10422276;27;96937;-61
2022/01/23 03:05:35;;;;;;;7.75;4.30;;;;;;;-3.43;72.63;97436.22;10421215;28;96889;-61
2022/01/23 03:10:43;;;;;;;10.52;5.63;;;;;;;-3.49;73.39;97438.91;10420969;27;96973;-62
2022/01/23 03:26:31;;;;;;;11.45;6.65;;;;;;;-3.45;73.28;97426.91;10421599;27;97706;-62
2022/01/23 03:31:43;;;;;;;11.45;5.75;;;;;;;-3.45;73.62;97424.38;10417842;27;97078;-63
2022/01/23 03:36:46;;;;;;;9.07;5.00;;;;;;;-3.56;72.60;97422.03;10417629;27;97011;-61
2022/01/23 03:41:50;;;;;;;8.68;4.60;;;;;;;-3.60;72.41;97425.50;10421154;27;96762;-61
2022/01/23 03:47:13;;;;;;;8.32;4.90;;;;;;;-3.60;72.52;97428.06;10418686;27;98635;-61
2022/01/23 03:52:17;;;;;;;7.13;4.45;;;;;;;-3.68;73.19;97428.25;10420371;27;97285;-62
2022/01/23 03:57:21;;;;;;;9.93;5.28;;;;;;;-3.75;73.42;97424.13;10421784;27;96885;-61
2022/01/23 04:02:24;;;;;;;12.05;5.38;;;;;;;-3.76;73.45;97418.16;10414504;27;96890;-62
2022/01/23 04:07:29;;;;;;;8.55;5.38;;;;;;;-3.76;73.31;97414.78;10418218;27;97055;-61
2022/01/23 04:12:42;;;;;;;9.15;4.90;;;;;;;-3.81;73.10;97409.78;10410126;27;98310;-64
2022/01/23 04:34:10;;;;;;;9.77;4.50;;;;;;;-3.96;73.16;97435.63;10285356;28;98664;-64
2022/01/23 05:00:47;;;;;;;12.13;6.45;;;;;;;-4.16;73.75;97433.41;10283305;28;97117;-65
2022/01/23 05:05:59;;;;;;;;;;;;;;;-4.15;72.93;97435.94;10419394;28;96774;-64
2022/01/23 05:11:02;;;;;;;9.40;4.70;;;;;;;-4.19;72.69;97442.00;10417060;27;96951;-65
2022/01/23 05:16:07;;;;;;;9.75;5.97;;;;;;;-4.24;73.44;97436.13;10413365;27;97834;-61
2022/01/23 05:21:32;;;;;;;11.18;6.40;;;;;;;-4.21;72.89;97436.03;10402513;27;97730;-61
2022/01/23 05:26:42;;;;;;;14.57;7.22;;;;;;;-4.21;73.67;97436.03;10417109;27;96933;-62
2022/01/23 05:31:48;;;;;;;11.80;6.47;;;;;;;-4.19;72.73;97429.22;10414262;27;96844;-61
2022/01/23 05:36:51;;;;;;;12.57;6.28;;;;;;;-4.25;73.51;97434.44;10406241;28;98514;-61
2022/01/23 05:41:59;;;;;;;13.63;7.45;;;;;;;-4.34;73.67;97439.72;10418658;27;96796;-61
2022/01/23 05:47:04;;;;;;;14.07;7.55;;;;;;;-4.39;73.53;97441.50;10414889;27;97363;-67
2022/01/23 05:52:08;;;;;;;13.02;7.10;;;;;;;-4.40;73.74;97455.97;10405545;27;98236;-61
2022/01/23 05:57:11;;;;;;;14.00;6.97;;;;;;;-4.39;73.82;97456.81;10416693;27;96968;-61
2022/01/23 06:02:15;;;;;;;13.57;6.63;;;;;;;-4.41;74.20;97463.66;10414380;27;99138;-61
2022/01/23 06:07:19;;;;;;;14.60;7.77;;;;;;;-4.49;73.37;97461.22;10417452;27;97029;-61
2022/01/23 06:12:22;;;;;;;18.02;9.07;;;;;;;-4.51;73.10;97458.69;10417399;27;97675;-62
2022/01/23 06:17:26;;;;;;;19.63;9.68;;;;;;;-4.48;73.80;97468.00;10409386;27;97429;-61
2022/01/23 06:22:29;;;;;;;16.43;8.70;;;;;;;-4.50;73.91;97462.94;10413654;27;96863;-65
2022/01/23 06:27:33;;;;;;;15.38;8.73;;;;;;;-4.49;73.62;97463.75;10396507;27;96900;-62
2022/01/23 06:32:38;;;;;;;11.70;6.63;;;;;;;-4.49;73.08;97462.03;10408892;27;96801;-61
2022/01/23 06:37:41;;;;;;;20.85;10.43;;;;;;;-4.49;73.70;97471.41;10411019;27;96931;-62
2022/01/23 06:42:44;;;;;;;15.43;9.13;;;;;;;-4.44;74.28;97463.69;10413977;27;96863;-62
2022/01/23 06:47:48;;;;;;;14.48;8.13;;;;;;;-4.40;74.07;97467.88;10413666;27;96939;-61
2022/01/23 06:52:51;;;;;;;13.17;7.07;;;;;;;-4.47;74.80;97472.22;10413528;27;98458;-61
2022/01/23 06:57:54;;;;;;;12.65;6.82;;;;;;;-4.33;74.84;97472.00;10416166;27;96905;-61
2022/01/23 07:02:59;;;;;;;11.70;6.78;;;;;;;-4.27;75.10;97488.91;10414072;27;97047;-61
2022/01/23 07:08:02;;;;;;;17.73;8.27;;;;;;;-4.32;74.19;97499.19;10415079;28;97256;-64
2022/01/23 07:13:05;;;;;;;13.73;7.75;;;;;;;-4.41;73.74;97505.28;10414746;27;98492;-61
2022/01/23 07:18:09;;;;;;;14.57;7.85;;;;;;;-4.45;73.55;97518.09;10412375;27;97079;-61
2022/01/23 07:23:13;;;;;;;17.13;8.80;;;;;;;-4.53;74.47;97534.38;10415023;27;96790;-61
2022/01/23 07:28:19;;;;;;;14.10;7.85;;;;;;;-4.55;74.16;97523.38;10413988;27;96812;-62
2022/01/23 07:33:23;;;;;;;11.23;6.20;;;;;;;-4.55;75.33;97519.97;10407901;27;98686;-62
2022/01/23 07:38:26;;;;;;;12.35;5.55;;;;;;;-4.53;74.87;97519.06;10414809;28;96862;-61
2022/01/23 07:43:29;;;;;;;12.18;6.32;;;;;;;-4.42;74.73;97530.81;10417802;27;96797;-63
2022/01/23 07:48:34;;;;;;;9.73;5.35;;;;;;;-4.31;75.13;97532.34;10415599;27;98332;-62
2022/01/23 07:53:37;;;;;;;10.93;6.00;;;;;;;-4.27;75.35;97543.34;10418334;27;96763;-63
2022/01/23 07:58:39;;;;;;;8.93;5.55;;;;;;;-4.18;76.14;97537.25;10420826;27;97298;-62
2022/01/23 08:03:44;;;;;;;9.70;5.22;;;;;;;-4.08;75.26;97537.94;10409887;27;96861;-61
2022/01/23 08:08:49;;;;;;;9.82;5.32;;;;;;;-3.97;75.77;97543.69;10417960;27;96853;-61
2022/01/23 08:13:51;;;;;;;12.00;6.78;;;;;;;-3.80;75.19;97533.19;10411735;27;96800;-61
2022/01/23 08:18:57;;;;;;;13.25;6.03;;;;;;;-3.71;74.81;97540.66;10412695;27;96990;-61
2022/01/23 08:24:00;;;;;;;;;;;;;;;-3.65;74.62;97548.22;10409632;28;98691;-61
2022/01/23 08:29:03;;;;;;;12.57;6.15;;;;;;;-3.58;74.35;97554.06;10410180;27;96920;-62
2022/01/23 08:34:07;;;;;;;11.60;6.63;;;;;;;-3.59;74.77;97552.38;10404850;27;96798;-61
2022/01/23 08:39:10;;;;;;;13.00;7.38;;;;;;;-3.62;73.99;97547.31;10418580;27;96904;-62
2022/01/23 08:44:13;;;;;;;12.15;7.72;;;;;;;-3.52;73.78;97550.53;10412499;27;99017;-61
2022/01/23 08:49:19;;;;;;;14.20;7.45;;;;;;;-3.42;73.83;97545.22;10413020;27;96859;-63
2022/01/23 08:54:23;;;;;;;22.75;12.15;;;;;;;-3.25;74.61;97555.09;10409999;27;98702;-63
2022/01/23 08:59:25;;;;;;;20.73;12.65;;;;;;;-2.88;74.79;97535.59;10407978;28;97988;-61
2022/01/23 09:04:30;;;;;;;20.75;12.50;;;;;;;-2.71;73.92;97532.69;10406185;28;96851;-61
2022/01/23 09:09:38;;;;;;;24.02;13.77;;;;;;;-2.53;74.32;97536.53;10407944;27;97004;-61
2022/01/23 09:14:40;;;;;;;21.13;13.50;;;;;;;-2.31;74.27;97542.81;10405894;28;96873;-61
2022/01/23 09:19:47;;;;;;;24.77;15.25;;;;;;;-2.02;73.40;97538.72;10405666;28;97135;-62
2022/01/23 09:24:50;;;;;;;31.30;16.75;;;;;;;-1.78;74.38;97526.13;10416144;28;98338;-61
2022/01/23 09:29:55;;;;;;;27.23;15.70;;;;;;;-1.63;74.50;97520.63;10412969;28;99087;-62
2022/01/23 09:34:59;;;;;;;28.63;15.83;;;;;;;-1.52;74.46;97526.31;10415676;27;96892;-61
2022/01/23 09:40:05;;;;;;;30.48;16.73;;;;;;;-1.48;73.88;97515.06;10409114;28;97131;-65
2022/01/23 09:45:11;;;;;;;31.88;17.58;;;;;;;-1.37;74.37;97521.63;10410700;27;97266;-66
2022/01/23 09:50:16;;;;;;;26.92;17.17;;;;;;;-1.19;74.09;97526.22;10410782;27;97130;-61
2022/01/23 09:55:21;;;;;;;27.58;17.60;;;;;;;-0.98;74.71;97523.91;10407158;27;98548;-62
2022/01/23 10:00:27;;;;;;;29.48;18.50;;;;;;;-0.77;74.84;97525.84;10421810;27;96974;-63
2022/01/23 10:05:32;;;;;;;28.98;18.60;;;;;;;-0.58;74.75;97527.84;10407042;27;97323;-61
2022/01/23 10:10:39;;;;;;;30.60;18.55;;;;;;;-0.28;74.54;97525.22;10407403;27;97388;-61
2022/01/23 10:15:43;;;;;;;31.95;18.38;;;;;;;0.04;74.86;97522.41;10406241;27;96902;-63
2022/01/23 10:20:47;;;;;;;33.70;19.75;;;;;;;0.29;74.66;97520.72;10412326;27;96950;-61
2022/01/23 10:25:52;;;;;;;31.20;19.23;;;;;;;0.48;75.26;97521.78;10411156;27;97264;-62
2022/01/23 10:30:57;;;;;;;29.60;18.42;;;;;;;0.52;75.29;97520.78;10409554;27;98085;-61
2022/01/23 10:36:05;;;;;;;26.33;16.50;;;;;;;0.68;75.20;97528.78;10412377;27;98847;-63
2022/01/23 10:41:31;;;;;;;24.70;14.95;;;;;;;0.88;75.28;97509.19;10413064;27;97983;-61
2022/01/23 10:47:00;;;;;;;22.58;15.30;;;;;;;1.05;75.15;97516.31;10413279;27;102402;-61
2022/01/23 10:52:05;;;;;;;24.75;15.88;;;;;;;1.26;74.86;97501.78;10409491;27;97899;-62
2022/01/23 10:57:08;;;;;;;25.73;16.10;;;;;;;1.36;74.15;97492.78;10395623;27;98658;-61
2022/01/23 11:02:13;;;;;;;25.00;16.60;;;;;;;1.58;73.83;97479.09;10401185;27;96919;-61
2022/01/23 11:07:18;;;;;;;24.02;16.25;;;;;;;1.63;73.47;97477.16;10416029;27;97996;-63
2022/01/23 11:12:32;;;;;;;26.30;16.30;;;;;;;1.72;73.24;97463.91;10409613;27;98271;-62
2022/01/23 11:17:49;;;;;;;23.35;15.50;;;;;;;1.86;73.04;97464.16;10410990;27;97503;-61
2022/01/23 11:23:01;;;;;;;24.75;14.45;;;;;;;1.86;72.77;97466.72;10413160;27;98843;-61
2022/01/23 11:28:05;;;;;;;21.92;14.07;;;;;;;1.83;73.04;97464.28;10411198;27;98513;-61
2022/01/23 11:33:11;;;;;;;22.45;14.65;;;;;;;1.79;72.85;97467.06;10412339;27;98552;-64
2022/01/23 11:38:19;;;;;;;21.92;15.02;;;;;;;1.82;72.49;97467.78;10400721;27;98638;-62
2022/01/23 11:54:07;;;;;;;24.15;14.82;;;;;;;1.80;72.23;97461.00;10404929;27;97850;-61
2022/01/23 11:59:32;;;;;;;20.38;13.40;;;;;;;1.79;72.36;97447.28;10405865;27;98436;-61
2022/01/23 12:04:35;;;;;;;22.70;13.63;;;;;;;1.81;71.88;97455.78;10405715;27;98488;-63
2022/01/23 12:09:41;;;;;;;21.25;13.50;;;;;;;1.92;72.12;97452.75;10404209;27;98533;-63
2022/01/23 12:20:05;;;;;;;21.00;12.82;;;;;;;1.83;71.53;97448.81;10396112;27;98802;-61
2022/01/23 12:25:22;;;;;;;19.67;13.07;;;;;;;1.85;72.19;97436.72;10400393;27;97712;-66
2022/01/23 12:30:35;;;;;;;21.92;13.27;;;;;;;1.89;72.11;97433.13;10405296;27;98366;-62
2022/01/23 12:35:39;;;;;;;18.38;12.18;;;;;;;2.01;72.27;97431.75;10403048;27;100112;-60
2022/01/23 12:40:47;;;;;;;19.40;12.05;;;;;;;2.08;71.44;97417.69;10402649;27;98414;-63
2022/01/23 12:45:53;;;;;;;17.58;11.18;;;;;;;2.13;71.34;97412.34;10397054;27;98716;-61
2022/01/23 12:50:59;;;;;;;20.52;12.38;;;;;;;2.21;71.36;97399.94;10397786;27;97907;-65
2022/01/23 12:56:04;;;;;;;17.52;12.10;;;;;;;2.29;71.42;97392.72;10398002;27;100773;-61
2022/01/23 13:01:15;;;;;;;17.67;11.43;;;;;;;2.45;71.03;97376.56;10401185;27;97106;-62
2022/01/23 13:06:29;;;;;;;18.80;12.00;;;;;;;2.55;70.78;97364.91;10395166;27;99985;-66
2022/01/23 13:11:52;;;;;;;16.63;11.15;;;;;;;2.43;70.79;97362.91;10404971;27;98194;-62
2022/01/23 13:17:30;;;;;;;17.23;11.50;;;;;;;2.42;71.21;97343.16;10397419;27;98921;-66
2022/01/23 13:33:22;;;;;;;16.17;10.30;;;;;;;2.64;70.87;97335.28;10238330;28;98546;-65
2022/01/23 13:38:25;;;;;;;17.50;11.07;;;;;;;2.64;70.21;97333.53;10236303;28;97497;-61
2022/01/23 13:59:48;;;;;;;18.33;10.80;;;;;;;3.09;68.82;97304.75;10235508;28;100436;-62
2022/01/23 14:04:53;;;;;;;19.15;11.65;;;;;;;3.03;69.43;97305.88;10352852;27;98612;-62
2022/01/23 14:09:57;;;;;;;19.08;11.75;;;;;;;3.01;69.30;97305.13;10397810;27;98720;-64
2022/01/23 14:15:09;;;;;;;17.87;11.83;;;;;;;2.94;69.06;97299.41;10396560;27;98616;-61
2022/01/23 14:20:14;;;;;;;17.90;11.52;;;;;;;2.90;69.27;97303.06;10402147;27;97013;-61
2022/01/23 14:25:20;;;;;;;16.80;10.50;;;;;;;2.89;68.85;97293.63;10400235;27;98786;-64
2022/01/23 14:30:27;;;;;;;16.02;10.32;;;;;;;2.92;69.43;97305.56;10396169;27;98917;-64
2022/01/23 14:35:31;;;;;;;17.05;10.52;;;;;;;2.73;69.53;97290.13;10404046;27;99835;-68
2022/01/23 14:40:34;;;;;;;14.98;9.98;;;;;;;2.69;69.42;97295.44;10395552;27;98496;-63
2022/01/23 14:45:41;;;;;;;16.90;10.95;;;;;;;2.59;69.48;97299.38;10396523;27;98525;-65
2022/01/23 14:50:50;;;;;;;14.98;10.57;;;;;;;2.54;69.69;97298.75;10402475;27;97583;-68
2022/01/23 14:55:56;;;;;;;14.90;10.18;;;;;;;2.46;69.97;97308.59;10405524;27;99012;-63
2022/01/23 15:01:02;;;;;;;15.23;10.40;;;;;;;2.37;69.69;97303.84;10405056;27;97321;-67
2022/01/23 15:06:09;;;;;;;13.45;9.40;;;;;;;2.30;69.99;97298.13;10409850;27;97154;-66
2022/01/23 15:11:12;;;;;;;17.67;10.48;;;;;;;2.29;70.26;97292.16;10402055;27;98387;-62
2022/01/23 15:16:16;;;;;;;14.50;9.65;;;;;;;2.25;70.01;97295.78;10408697;27;101955;-60
2022/01/23 15:21:19;;;;;;;17.17;10.43;;;;;;;2.17;70.00;97295.28;10409761;27;98245;-63
2022/01/23 15:26:23;;;;;;;16.33;10.48;;;;;;;2.14;69.95;97310.91;10410074;27;96915;-61
2022/01/23 15:31:30;;;;;;;17.48;10.48;;;;;;;2.13;70.08;97312.66;10409336;28;96928;-60
2022/01/23 15:36:34;;;;;;;13.75;9.18;;;;;;;2.01;70.37;97318.34;10408216;28;98497;-74
2022/01/23 15:41:37;;;;;;;15.90;10.65;;;;;;;1.96;70.44;97322.06;10406901;28;98302;-66
2022/01/23 15:46:41;;;;;;;16.83;10.15;;;;;;;2.00;69.74;97323.56;10396812;27;98076;-66
2022/01/23 15:51:47;;;;;;;17.90;11.17;;;;;;;2.01;70.48;97332.97;10407871;28;98967;-64
2022/01/23 15:56:52;;;;;;;;;;;;;;;2.00;70.30;97331.31;10408692;28;98022;-64
2022/01/23 16:01:56;;;;;;;16.38;10.27;;;;;;;1.95;69.23;97334.06;10402636;27;98214;-64
2022/01/23 16:06:59;;;;;;;15.75;10.02;;;;;;;1.94;70.18;97338.41;10398425;27;98345;-65
2022/01/23 16:12:03;;;;;;;14.10;9.45;;;;;;;1.87;70.69;97355.03;10397964;27;100255;-66
2022/01/23 16:17:27;;;;;;;17.10;10.23;;;;;;;1.71;70.56;97359.16;10401469;27;99432;-61
2022/01/23 16:22:30;;;;;;;16.77;10.30;;;;;;;1.72;70.31;97363.44;10399678;27;98485;-62
2022/01/23 16:27:33;;;;;;;16.02;10.45;;;;;;;1.72;70.39;97364.25;10399561;27;98175;-62
2022/01/23 16:32:54;;;;;;;16.45;10.00;;;;;;;1.71;70.86;97377.19;10400885;27;97754;-60
2022/01/23 16:37:58;;;;;;;;;;;;;;;1.70;70.37;97375.53;10401296;27;98470;-64
2022/01/23 16:43:01;;;;;;;15.18;9.90;;;;;;;1.73;70.60;97385.72;10402046;27;100811;-60
2022/01/23 16:48:07;;;;;;;16.40;9.88;;;;;;;1.76;70.42;97388.16;10404928;27;99239;-61
2022/01/23 16:53:10;;;;;;;16.80;10.38;;;;;;;1.61;71.10;97381.06;10406901;28;100543;-61
2022/01/23 16:58:13;;;;;;;14.40;9.45;;;;;;;1.55;71.38;97377.84;10404605;27;97365;-62
2022/01/23 17:03:17;;;;;;;14.73;9.68;;;;;;;1.63;71.33;97384.44;10407119;27;96889;-61
2022/01/23 17:08:20;;;;;;;19.45;10.95;;;;;;;1.68;71.21;97392.81;10402561;27;100000;-63
2022/01/23 17:13:24;;;;;;;15.10;10.05;;;;;;;1.53;71.22;97405.41;10404544;27;98600;-63
2022/01/23 17:18:30;;;;;;;22.73;12.98;;;;;;;1.52;71.61;97408.03;10401314;27;98948;-62
2022/01/23 17:23:33;;;;;;;17.50;10.75;;;;;;;1.45;72.14;97410.06;10397100;27;99783;-68
2022/01/23 17:28:36;;;;;;;17.65;10.43;;;;;;;1.78;71.14;97409.53;10396051;27;98304;-67
2022/01/23 17:33:40;;;;;;;14.23;9.43;;;;;;;1.90;70.69;97398.72;10395289;28;97676;-70
2022/01/23 17:38:43;;;;;;;18.53;10.77;;;;;;;2.00;71.28;97403.47;10403597;27;97648;-69
2022/01/23 17:43:48;;;;;;;16.50;10.25;;;;;;;1.94;71.48;97415.72;10406120;28;98642;-69
2022/01/23 17:49:05;;;;;;;20.75;12.60;;;;;;;1.99;70.57;97420.69;10406346;27;96927;-69
2022/01/23 17:54:08;;;;;;;19.45;11.43;;;;;;;1.55;71.29;97416.47;10405847;28;96953;-71
2022/01/23 20:22:00;;;;;;;17.45;10.82;;;;;;;0.30;71.16;97440.19;10401767;27;97331;-65
2022/01/23 20:27:06;;;;;;;15.10;10.63;;;;;;;0.42;72.53;97444.88;10396756;27;96969;-65
2022/01/23 20:32:10;;;;;;;16.75;10.70;;;;;;;0.64;72.52;97446.63;10400951;27;96856;-65
2022/01/23 20:37:16;;;;;;;17.50;12.23;;;;;;;0.78;73.06;97439.28;10386748;27;99101;-65
2022/01/23 20:42:19;;;;;;;15.88;10.35;;;;;;;0.94;73.18;97442.09;10405202;27;97075;-66
2022/01/23 20:47:24;;;;;;;13.85;10.10;;;;;;;1.04;72.93;97442.59;10383549;27;97309;-65
2022/01/23 20:52:38;;;;;;;17.13;11.60;;;;;;;1.13;72.67;97449.94;10386168;27;96978;-67
2022/01/23 20:57:41;;;;;;;19.77;11.95;;;;;;;1.20;72.76;97450.53;10375906;27;96896;-65
2022/01/23 21:02:48;;;;;;;14.23;9.88;;;;;;;1.20;72.64;97447.97;10372868;28;96922;-66
2022/01/23 21:07:52;;;;;;;13.88;9.70;;;;;;;1.10;72.75;97445.72;10388531;27;96819;-66
2022/01/23 21:12:55;;;;;;;15.40;10.13;;;;;;;1.09;73.28;97441.50;10380626;27;96761;-65
2022/01/23 21:18:07;;;;;;;13.27;9.20;;;;;;;1.11;72.57;97429.41;10400605;27;96987;-66
2022/01/23 21:23:36;;;;;;;14.25;9.45;;;;;;;1.15;73.05;97435.28;10398032;27;98390;-66
2022/01/23 21:29:34;;;;;;;13.45;9.57;;;;;;;1.16;72.66;97427.50;10383882;27;96922;-67
2022/01/23 21:39:49;;;;;;;15.20;9.88;;;;;;;1.08;72.94;97411.50;10360084;28;98290;-66
2022/01/23 21:44:52;;;;;;;13.80;8.90;;;;;;;1.09;72.80;97405.47;10363431;28;96914;-67
2022/01/23 21:49:56;;;;;;;13.30;9.23;;;;;;;1.11;72.65;97410.56;10354804;28;96824;-66
2022/01/23 21:55:01;;;;;;;15.00;9.48;;;;;;;1.15;72.50;97410.38;10357078;28;101137;-66
2022/01/23 22:00:05;;;;;;;14.60;8.60;;;;;;;1.18;72.48;97407.69;10353205;28;98714;-67
2022/01/23 22:05:08;;;;;;;13.23;8.20;;;;;;;1.15;72.55;97404.38;10366533;28;97207;-66
2022/01/23 22:10:28;;;;;;;12.88;8.30;;;;;;;1.10;72.46;97396.84;10355709;28;97115;-67
2022/01/23 22:20:54;;;;;;;14.32;9.55;;;;;;;1.18;72.16;97409.41;10354244;28;97263;-66
2022/01/23 22:31:18;;;;;;;15.05;10.25;;;;;;;1.24;71.95;97408.31;10355064;28;96859;-67
2022/01/23 22:36:23;;;;;;;16.00;10.32;;;;;;;1.23;72.65;97416.97;10354507;28;96882;-67
2022/01/23 22:41:27;;;;;;;13.38;10.57;;;;;;;1.15;72.27;97412.94;10344681;28;97116;-66
2022/01/23 22:46:31;;;;;;;15.07;10.97;;;;;;;1.16;72.69;97419.78;10350447;28;96765;-66
2022/01/23 22:51:35;;;;;;;16.98;10.65;;;;;;;1.21;72.08;97429.91;10354529;28;96989;-66
2022/01/23 22:56:40;;;;;;;16.70;10.20;;;;;;;1.24;72.22;97432.31;10360621;28;96952;-66
2022/01/23 23:01:44;;;;;;;14.07;9.97;;;;;;;1.26;72.62;97434.84;10342990;28;97038;-67
2022/01/23 23:06:47;;;;;;;15.48;9.52;;;;;;;1.17;72.25;97442.06;10340275;28;97570;-67
2022/01/23 23:11:57;;;;;;;16.25;10.68;;;;;;;1.15;72.53;97441.25;10357188;28;96957;-66
2022/01/23 23:17:02;;;;;;;14.15;9.80;;;;;;;1.15;72.50;97436.09;10349008;28;96886;-67
2022/01/23 23:22:05;;;;;;;13.70;9.20;;;;;;;1.22;72.29;97438.44;10343161;28;97237;-67
2022/01/23 23:27:13;;;;;;;13.45;9.82;;;;;;;1.28;72.18;97440.75;10350294;28;96938;-66
2022/01/23 23:32:16;;;;;;;16.50;9.80;;;;;;;1.23;72.31;97442.72;10360743;28;97500;-67
2022/01/23 23:37:19;;;;;;;16.50;10.63;;;;;;;1.15;72.13;97440.41;10359767;28;98023;-67
2022/01/23 23:42:32;;;;;;;14.05;9.07;;;;;;;1.09;72.10;97444.06;10341593;28;96967;-66
2022/01/23 23:47:36;;;;;;;14.18;9.38;;;;;;;1.15;72.11;97443.00;10358772;28;96934;-66
2022/01/23 23:52:43;;;;;;;15.00;10.55;;;;;;;1.10;71.80;97440.59;10340055;28;96954;-67
2022/01/23 23:57:49;;;;;;;13.93;9.27;;;;;;;1.13;71.91;97437.91;10354791;28;96871;-66
